sensor_id;sensor_type;location;lat;lon;timestamp;P1;durP1;ratioP1;P2;durP2;ratioP2
67839;SDS011;54636;51.684;5.142;2022-10-17T00:00:38;10.20;;;8.63;;
67839;SDS011;54636;51.684;5.142;2022-10-17T00:03:03;12.13;;;8.68;;
67839;SDS011;54636;51.684;5.142;2022-10-17T00:05:29;10.27;;;8.75;;
67839;SDS011;54636;51.684;5.142;2022-10-17T00:07:54;21.20;;;8.68;;
67839;SDS011;54636;51.684;5.142;2022-10-17T00:10:20;11.20;;;9.65;;
67839;SDS011;54636;51.684;5.142;2022-10-17T00:12:46;12.00;;;9.40;;
67839;SDS011;54636;51.684;5.142;2022-10-17T00:15:16;9.07;;;8.38;;
67839;SDS011;54636;51.684;5.142;2022-10-17T00:17:42;15.45;;;9.65;;
67839;SDS011;54636;51.684;5.142;2022-10-17T00:20:08;10.48;;;9.48;;
67839;SDS011;54636;51.684;5.142;2022-10-17T00:22:33;10.20;;;9.30;;
67839;SDS011;54636;51.684;5.142;2022-10-17T00:24:59;15.50;;;8.95;;
67839;SDS011;54636;51.684;5.142;2022-10-17T00:27:24;9.50;;;8.52;;
67839;SDS011;54636;51.684;5.142;2022-10-17T00:29:50;14.38;;;10.02;;
67839;SDS011;54636;51.684;5.142;2022-10-17T00:32:16;10.68;;;9.57;;
67839;SDS011;54636;51.684;5.142;2022-10-17T00:34:42;10.93;;;9.38;;
67839;SDS011;54636;51.684;5.142;2022-10-17T00:37:08;9.88;;;8.98;;
67839;SDS011;54636;51.684;5.142;2022-10-17T00:39:34;10.65;;;8.95;;
67839;SDS011;54636;51.684;5.142;2022-10-17T00:41:59;11.50;;;10.13;;
67839;SDS011;54636;51.684;5.142;2022-10-17T00:46:53;10.38;;;9.48;;
67839;SDS011;54636;51.684;5.142;2022-10-17T00:49:20;15.55;;;9.88;;
67839;SDS011;54636;51.684;5.142;2022-10-17T00:51:50;10.02;;;9.23;;
67839;SDS011;54636;51.684;5.142;2022-10-17T00:54:16;11.60;;;9.85;;
67839;SDS011;54636;51.684;5.142;2022-10-17T00:56:45;14.65;;;9.93;;
67839;SDS011;54636;51.684;5.142;2022-10-17T00:59:12;11.52;;;9.55;;
67839;SDS011;54636;51.684;5.142;2022-10-17T01:01:40;12.13;;;9.07;;
67839;SDS011;54636;51.684;5.142;2022-10-17T01:04:11;10.55;;;9.55;;
67839;SDS011;54636;51.684;5.142;2022-10-17T01:06:37;12.85;;;10.48;;
67839;SDS011;54636;51.684;5.142;2022-10-17T01:09:02;10.50;;;9.52;;
67839;SDS011;54636;51.684;5.142;2022-10-17T01:11:33;12.30;;;10.57;;
67839;SDS011;54636;51.684;5.142;2022-10-17T01:15:07;12.00;;;10.77;;
67839;SDS011;54636;51.684;5.142;2022-10-17T01:22:48;12.93;;;10.50;;
67839;SDS011;54636;51.684;5.142;2022-10-17T01:27:59;15.00;;;10.75;;
67839;SDS011;54636;51.684;5.142;2022-10-17T01:31:12;13.07;;;9.73;;
67839;SDS011;54636;51.684;5.142;2022-10-17T01:33:58;19.13;;;10.32;;
67839;SDS011;54636;51.684;5.142;2022-10-17T01:42:12;12.30;;;10.52;;
67839;SDS011;54636;51.684;5.142;2022-10-17T01:47:16;14.82;;;9.57;;
67839;SDS011;54636;51.684;5.142;2022-10-17T01:49:45;12.98;;;10.43;;
67839;SDS011;54636;51.684;5.142;2022-10-17T01:52:17;11.37;;;10.17;;
67839;SDS011;54636;51.684;5.142;2022-10-17T01:54:57;12.38;;;10.50;;
67839;SDS011;54636;51.684;5.142;2022-10-17T01:57:49;15.70;;;12.00;;
67839;SDS011;54636;51.684;5.142;2022-10-17T02:00:20;14.00;;;10.77;;
67839;SDS011;54636;51.684;5.142;2022-10-17T02:02:47;11.17;;;10.07;;
67839;SDS011;54636;51.684;5.142;2022-10-17T02:05:18;12.57;;;9.93;;
67839;SDS011;54636;51.684;5.142;2022-10-17T02:07:51;12.13;;;10.15;;
67839;SDS011;54636;51.684;5.142;2022-10-17T02:13:13;9.88;;;8.57;;
67839;SDS011;54636;51.684;5.142;2022-10-17T02:18:56;15.80;;;10.82;;
67839;SDS011;54636;51.684;5.142;2022-10-17T02:24:32;15.90;;;10.05;;
67839;SDS011;54636;51.684;5.142;2022-10-17T02:27:29;11.48;;;10.27;;
67839;SDS011;54636;51.684;5.142;2022-10-17T02:32:46;17.35;;;11.10;;
67839;SDS011;54636;51.684;5.142;2022-10-17T02:35:18;13.73;;;11.43;;
67839;SDS011;54636;51.684;5.142;2022-10-17T02:37:46;19.75;;;10.75;;
67839;SDS011;54636;51.684;5.142;2022-10-17T02:40:13;14.85;;;11.52;;
67839;SDS011;54636;51.684;5.142;2022-10-17T02:42:42;16.10;;;11.32;;
67839;SDS011;54636;51.684;5.142;2022-10-17T02:45:09;13.30;;;11.13;;
67839;SDS011;54636;51.684;5.142;2022-10-17T02:50:10;18.33;;;11.80;;
67839;SDS011;54636;51.684;5.142;2022-10-17T02:52:38;14.93;;;12.13;;
67839;SDS011;54636;51.684;5.142;2022-10-17T02:57:47;16.23;;;11.98;;
67839;SDS011;54636;51.684;5.142;2022-10-17T03:00:16;17.17;;;11.02;;
67839;SDS011;54636;51.684;5.142;2022-10-17T03:02:43;13.00;;;11.77;;
67839;SDS011;54636;51.684;5.142;2022-10-17T03:05:20;14.77;;;11.82;;
67839;SDS011;54636;51.684;5.142;2022-10-17T03:07:47;11.73;;;10.65;;
67839;SDS011;54636;51.684;5.142;2022-10-17T03:10:12;26.05;;;12.05;;
67839;SDS011;54636;51.684;5.142;2022-10-17T03:12:38;16.35;;;11.48;;
67839;SDS011;54636;51.684;5.142;2022-10-17T03:15:03;15.48;;;11.85;;
67839;SDS011;54636;51.684;5.142;2022-10-17T03:17:29;15.82;;;11.75;;
67839;SDS011;54636;51.684;5.142;2022-10-17T03:19:55;6.88;;;6.25;;
67839;SDS011;54636;51.684;5.142;2022-10-17T03:22:21;17.90;;;10.68;;
67839;SDS011;54636;51.684;5.142;2022-10-17T03:24:46;11.02;;;9.90;;
67839;SDS011;54636;51.684;5.142;2022-10-17T03:27:11;18.85;;;10.88;;
67839;SDS011;54636;51.684;5.142;2022-10-17T03:29:37;16.08;;;11.95;;
67839;SDS011;54636;51.684;5.142;2022-10-17T03:32:02;15.27;;;11.20;;
67839;SDS011;54636;51.684;5.142;2022-10-17T03:34:30;13.55;;;11.23;;
67839;SDS011;54636;51.684;5.142;2022-10-17T03:36:56;15.18;;;11.32;;
67839;SDS011;54636;51.684;5.142;2022-10-17T03:39:21;13.85;;;10.90;;
67839;SDS011;54636;51.684;5.142;2022-10-17T03:41:47;12.23;;;10.95;;
67839;SDS011;54636;51.684;5.142;2022-10-17T03:44:12;12.07;;;10.88;;
67839;SDS011;54636;51.684;5.142;2022-10-17T03:46:37;18.35;;;10.80;;
67839;SDS011;54636;51.684;5.142;2022-10-17T03:49:03;17.90;;;11.32;;
67839;SDS011;54636;51.684;5.142;2022-10-17T03:51:28;11.43;;;10.23;;
67839;SDS011;54636;51.684;5.142;2022-10-17T03:53:54;19.45;;;10.65;;
67839;SDS011;54636;51.684;5.142;2022-10-17T03:56:20;11.70;;;9.98;;
67839;SDS011;54636;51.684;5.142;2022-10-17T03:58:47;15.02;;;10.73;;
67839;SDS011;54636;51.684;5.142;2022-10-17T04:01:13;14.10;;;10.88;;
67839;SDS011;54636;51.684;5.142;2022-10-17T04:03:39;13.65;;;10.07;;
67839;SDS011;54636;51.684;5.142;2022-10-17T04:06:05;12.88;;;10.10;;
67839;SDS011;54636;51.684;5.142;2022-10-17T04:08:33;13.30;;;10.13;;
67839;SDS011;54636;51.684;5.142;2022-10-17T04:10:59;19.77;;;10.27;;
67839;SDS011;54636;51.684;5.142;2022-10-17T04:13:26;10.98;;;9.75;;
67839;SDS011;54636;51.684;5.142;2022-10-17T04:15:59;18.73;;;10.35;;
67839;SDS011;54636;51.684;5.142;2022-10-17T04:18:27;11.48;;;10.23;;
67839;SDS011;54636;51.684;5.142;2022-10-17T04:20:52;12.10;;;9.95;;
67839;SDS011;54636;51.684;5.142;2022-10-17T04:23:18;15.20;;;11.00;;
67839;SDS011;54636;51.684;5.142;2022-10-17T04:25:44;15.25;;;10.43;;
67839;SDS011;54636;51.684;5.142;2022-10-17T04:28:09;10.85;;;9.60;;
67839;SDS011;54636;51.684;5.142;2022-10-17T04:30:35;14.43;;;9.00;;
67839;SDS011;54636;51.684;5.142;2022-10-17T04:33:00;14.02;;;10.05;;
67839;SDS011;54636;51.684;5.142;2022-10-17T04:35:26;15.13;;;10.02;;
67839;SDS011;54636;51.684;5.142;2022-10-17T04:37:51;18.50;;;10.70;;
67839;SDS011;54636;51.684;5.142;2022-10-17T04:40:17;17.15;;;10.05;;
67839;SDS011;54636;51.684;5.142;2022-10-17T04:42:42;13.85;;;10.00;;
67839;SDS011;54636;51.684;5.142;2022-10-17T04:45:08;16.75;;;10.35;;
67839;SDS011;54636;51.684;5.142;2022-10-17T04:47:33;13.88;;;9.52;;
67839;SDS011;54636;51.684;5.142;2022-10-17T04:49:59;12.65;;;9.45;;
67839;SDS011;54636;51.684;5.142;2022-10-17T04:52:24;15.27;;;10.07;;
67839;SDS011;54636;51.684;5.142;2022-10-17T04:54:50;10.50;;;9.48;;
67839;SDS011;54636;51.684;5.142;2022-10-17T04:57:16;19.15;;;10.38;;
67839;SDS011;54636;51.684;5.142;2022-10-17T04:59:41;11.55;;;9.88;;
67839;SDS011;54636;51.684;5.142;2022-10-17T05:02:07;10.80;;;9.70;;
67839;SDS011;54636;51.684;5.142;2022-10-17T05:04:32;12.55;;;9.98;;
67839;SDS011;54636;51.684;5.142;2022-10-17T05:06:57;14.40;;;10.57;;
67839;SDS011;54636;51.684;5.142;2022-10-17T05:09:23;16.27;;;9.95;;
67839;SDS011;54636;51.684;5.142;2022-10-17T05:11:48;13.73;;;9.50;;
67839;SDS011;54636;51.684;5.142;2022-10-17T05:14:14;11.32;;;9.88;;
67839;SDS011;54636;51.684;5.142;2022-10-17T05:16:39;12.63;;;9.30;;
67839;SDS011;54636;51.684;5.142;2022-10-17T05:19:05;10.80;;;9.43;;
67839;SDS011;54636;51.684;5.142;2022-10-17T05:21:30;12.65;;;9.60;;
67839;SDS011;54636;51.684;5.142;2022-10-17T05:23:56;12.13;;;8.77;;
67839;SDS011;54636;51.684;5.142;2022-10-17T05:26:21;15.23;;;8.98;;
67839;SDS011;54636;51.684;5.142;2022-10-17T05:28:47;11.00;;;9.05;;
67839;SDS011;54636;51.684;5.142;2022-10-17T05:31:13;15.05;;;9.55;;
67839;SDS011;54636;51.684;5.142;2022-10-17T05:33:39;12.82;;;9.27;;
67839;SDS011;54636;51.684;5.142;2022-10-17T05:36:05;10.75;;;9.07;;
67839;SDS011;54636;51.684;5.142;2022-10-17T05:38:31;13.73;;;9.27;;
67839;SDS011;54636;51.684;5.142;2022-10-17T05:40:57;12.43;;;8.57;;
67839;SDS011;54636;51.684;5.142;2022-10-17T05:43:23;10.20;;;8.70;;
67839;SDS011;54636;51.684;5.142;2022-10-17T05:45:49;11.00;;;9.02;;
67839;SDS011;54636;51.684;5.142;2022-10-17T05:48:14;10.00;;;8.88;;
67839;SDS011;54636;51.684;5.142;2022-10-17T05:50:40;15.77;;;9.18;;
67839;SDS011;54636;51.684;5.142;2022-10-17T05:53:05;16.23;;;9.60;;
67839;SDS011;54636;51.684;5.142;2022-10-17T05:55:30;10.57;;;9.35;;
67839;SDS011;54636;51.684;5.142;2022-10-17T05:57:56;10.82;;;8.40;;
67839;SDS011;54636;51.684;5.142;2022-10-17T06:00:22;11.98;;;9.50;;
67839;SDS011;54636;51.684;5.142;2022-10-17T06:02:48;13.88;;;8.65;;
67839;SDS011;54636;51.684;5.142;2022-10-17T06:05:13;13.88;;;9.35;;
67839;SDS011;54636;51.684;5.142;2022-10-17T06:07:39;13.40;;;9.18;;
67839;SDS011;54636;51.684;5.142;2022-10-17T06:10:07;12.43;;;9.60;;
67839;SDS011;54636;51.684;5.142;2022-10-17T06:12:34;14.13;;;8.93;;
67839;SDS011;54636;51.684;5.142;2022-10-17T06:14:59;12.88;;;9.45;;
67839;SDS011;54636;51.684;5.142;2022-10-17T06:17:24;19.30;;;10.25;;
67839;SDS011;54636;51.684;5.142;2022-10-17T06:19:50;18.13;;;9.13;;
67839;SDS011;54636;51.684;5.142;2022-10-17T06:22:15;14.25;;;9.10;;
67839;SDS011;54636;51.684;5.142;2022-10-17T06:24:41;11.73;;;8.88;;
67839;SDS011;54636;51.684;5.142;2022-10-17T06:27:06;16.58;;;9.40;;
67839;SDS011;54636;51.684;5.142;2022-10-17T06:29:32;14.52;;;9.38;;
67839;SDS011;54636;51.684;5.142;2022-10-17T06:31:58;14.77;;;9.10;;
67839;SDS011;54636;51.684;5.142;2022-10-17T06:34:23;20.48;;;8.93;;
67839;SDS011;54636;51.684;5.142;2022-10-17T06:36:48;10.57;;;7.85;;
67839;SDS011;54636;51.684;5.142;2022-10-17T06:39:14;9.88;;;8.15;;
67839;SDS011;54636;51.684;5.142;2022-10-17T06:41:39;9.05;;;8.05;;
67839;SDS011;54636;51.684;5.142;2022-10-17T06:44:05;12.27;;;8.35;;
67839;SDS011;54636;51.684;5.142;2022-10-17T06:46:35;13.35;;;8.55;;
67839;SDS011;54636;51.684;5.142;2022-10-17T06:49:01;16.77;;;7.68;;
67839;SDS011;54636;51.684;5.142;2022-10-17T06:51:28;13.25;;;7.78;;
67839;SDS011;54636;51.684;5.142;2022-10-17T06:53:56;8.77;;;7.25;;
67839;SDS011;54636;51.684;5.142;2022-10-17T06:56:22;7.78;;;7.07;;
67839;SDS011;54636;51.684;5.142;2022-10-17T06:58:47;11.82;;;7.00;;
67839;SDS011;54636;51.684;5.142;2022-10-17T07:01:15;11.80;;;7.63;;
67839;SDS011;54636;51.684;5.142;2022-10-17T07:03:41;7.97;;;7.18;;
67839;SDS011;54636;51.684;5.142;2022-10-17T07:06:07;10.32;;;7.13;;
67839;SDS011;54636;51.684;5.142;2022-10-17T07:08:36;7.75;;;7.10;;
67839;SDS011;54636;51.684;5.142;2022-10-17T07:11:35;9.02;;;6.82;;
67839;SDS011;54636;51.684;5.142;2022-10-17T07:13:54;10.45;;;6.68;;
67839;SDS011;54636;51.684;5.142;2022-10-17T07:16:19;9.63;;;6.38;;
67839;SDS011;54636;51.684;5.142;2022-10-17T07:18:47;10.98;;;6.28;;
67839;SDS011;54636;51.684;5.142;2022-10-17T07:21:16;6.70;;;6.10;;
67839;SDS011;54636;51.684;5.142;2022-10-17T07:23:42;10.43;;;5.30;;
67839;SDS011;54636;51.684;5.142;2022-10-17T07:26:09;9.13;;;5.65;;
67839;SDS011;54636;51.684;5.142;2022-10-17T07:28:37;7.72;;;5.85;;
67839;SDS011;54636;51.684;5.142;2022-10-17T07:31:08;5.75;;;5.28;;
67839;SDS011;54636;51.684;5.142;2022-10-17T07:33:36;5.75;;;5.00;;
67839;SDS011;54636;51.684;5.142;2022-10-17T07:36:03;6.97;;;5.90;;
67839;SDS011;54636;51.684;5.142;2022-10-17T07:38:29;8.13;;;5.00;;
67839;SDS011;54636;51.684;5.142;2022-10-17T07:40:56;7.35;;;5.05;;
67839;SDS011;54636;51.684;5.142;2022-10-17T07:43:22;14.70;;;6.10;;
67839;SDS011;54636;51.684;5.142;2022-10-17T07:45:49;12.40;;;5.50;;
67839;SDS011;54636;51.684;5.142;2022-10-17T07:48:15;12.77;;;6.32;;
67839;SDS011;54636;51.684;5.142;2022-10-17T07:50:40;22.85;;;6.47;;
67839;SDS011;54636;51.684;5.142;2022-10-17T07:53:06;11.43;;;7.43;;
67839;SDS011;54636;51.684;5.142;2022-10-17T07:55:31;9.13;;;6.30;;
67839;SDS011;54636;51.684;5.142;2022-10-17T07:57:57;11.55;;;7.35;;
67839;SDS011;54636;51.684;5.142;2022-10-17T08:00:24;9.73;;;6.75;;
67839;SDS011;54636;51.684;5.142;2022-10-17T08:02:50;13.05;;;7.00;;
67839;SDS011;54636;51.684;5.142;2022-10-17T08:05:15;10.68;;;6.35;;
67839;SDS011;54636;51.684;5.142;2022-10-17T08:07:41;12.73;;;7.70;;
67839;SDS011;54636;51.684;5.142;2022-10-17T08:10:06;10.93;;;7.13;;
67839;SDS011;54636;51.684;5.142;2022-10-17T08:12:32;8.20;;;6.88;;
67839;SDS011;54636;51.684;5.142;2022-10-17T08:14:59;11.88;;;7.43;;
67839;SDS011;54636;51.684;5.142;2022-10-17T08:17:25;11.23;;;7.35;;
67839;SDS011;54636;51.684;5.142;2022-10-17T08:19:51;9.15;;;7.05;;
67839;SDS011;54636;51.684;5.142;2022-10-17T08:22:16;13.05;;;7.30;;
67839;SDS011;54636;51.684;5.142;2022-10-17T08:24:41;11.73;;;7.35;;
67839;SDS011;54636;51.684;5.142;2022-10-17T08:27:07;13.90;;;7.38;;
67839;SDS011;54636;51.684;5.142;2022-10-17T08:29:36;19.73;;;8.48;;
67839;SDS011;54636;51.684;5.142;2022-10-17T08:32:02;15.73;;;8.05;;
67839;SDS011;54636;51.684;5.142;2022-10-17T08:34:27;8.50;;;7.68;;
67839;SDS011;54636;51.684;5.142;2022-10-17T08:36:53;15.63;;;7.90;;
67839;SDS011;54636;51.684;5.142;2022-10-17T08:39:18;12.25;;;7.95;;
67839;SDS011;54636;51.684;5.142;2022-10-17T08:44:25;10.00;;;7.07;;
67839;SDS011;54636;51.684;5.142;2022-10-17T08:47:04;8.55;;;7.65;;
67839;SDS011;54636;51.684;5.142;2022-10-17T08:52:11;13.32;;;8.10;;
67839;SDS011;54636;51.684;5.142;2022-10-17T08:54:43;10.18;;;8.52;;
67839;SDS011;54636;51.684;5.142;2022-10-17T08:57:14;14.88;;;8.13;;
67839;SDS011;54636;51.684;5.142;2022-10-17T08:59:44;12.52;;;8.23;;
67839;SDS011;54636;51.684;5.142;2022-10-17T09:10:54;11.50;;;8.35;;
67839;SDS011;54636;51.684;5.142;2022-10-17T09:16:35;11.43;;;7.45;;
67839;SDS011;54636;51.684;5.142;2022-10-17T09:19:29;13.90;;;7.50;;
67839;SDS011;54636;51.684;5.142;2022-10-17T09:22:17;7.50;;;6.47;;
67839;SDS011;54636;51.684;5.142;2022-10-17T09:28:05;7.82;;;6.72;;
67839;SDS011;54636;51.684;5.142;2022-10-17T09:32:56;6.93;;;5.97;;
67839;SDS011;54636;51.684;5.142;2022-10-17T09:35:21;9.95;;;6.90;;
67839;SDS011;54636;51.684;5.142;2022-10-17T09:37:49;8.38;;;6.88;;
67839;SDS011;54636;51.684;5.142;2022-10-17T09:40:18;8.82;;;7.25;;
67839;SDS011;54636;51.684;5.142;2022-10-17T09:42:48;8.93;;;7.05;;
67839;SDS011;54636;51.684;5.142;2022-10-17T09:45:22;7.30;;;6.60;;
67839;SDS011;54636;51.684;5.142;2022-10-17T09:50:50;7.03;;;5.53;;
67839;SDS011;54636;51.684;5.142;2022-10-17T09:53:19;6.90;;;5.63;;
67839;SDS011;54636;51.684;5.142;2022-10-17T09:55:48;8.65;;;6.10;;
67839;SDS011;54636;51.684;5.142;2022-10-17T09:58:19;8.52;;;5.50;;
67839;SDS011;54636;51.684;5.142;2022-10-17T10:00:46;6.53;;;5.50;;
67839;SDS011;54636;51.684;5.142;2022-10-17T10:03:22;6.97;;;5.43;;
67839;SDS011;54636;51.684;5.142;2022-10-17T10:08:53;6.22;;;5.22;;
67839;SDS011;54636;51.684;5.142;2022-10-17T10:12:03;5.80;;;5.22;;
67839;SDS011;54636;51.684;5.142;2022-10-17T10:14:35;5.97;;;5.47;;
67839;SDS011;54636;51.684;5.142;2022-10-17T10:17:05;6.80;;;4.80;;
67839;SDS011;54636;51.684;5.142;2022-10-17T10:19:49;8.57;;;5.50;;
67839;SDS011;54636;51.684;5.142;2022-10-17T10:22:16;10.45;;;5.18;;
67839;SDS011;54636;51.684;5.142;2022-10-17T10:24:43;6.07;;;5.03;;
67839;SDS011;54636;51.684;5.142;2022-10-17T10:27:12;5.95;;;5.35;;
67839;SDS011;54636;51.684;5.142;2022-10-17T10:29:42;6.53;;;5.88;;
67839;SDS011;54636;51.684;5.142;2022-10-17T10:32:19;7.60;;;4.90;;
67839;SDS011;54636;51.684;5.142;2022-10-17T10:34:52;7.20;;;5.28;;
67839;SDS011;54636;51.684;5.142;2022-10-17T10:37:24;5.55;;;5.15;;
67839;SDS011;54636;51.684;5.142;2022-10-17T10:39:57;6.90;;;5.30;;
67839;SDS011;54636;51.684;5.142;2022-10-17T10:42:26;5.93;;;4.50;;
67839;SDS011;54636;51.684;5.142;2022-10-17T10:45:00;6.85;;;5.43;;
67839;SDS011;54636;51.684;5.142;2022-10-17T10:47:29;8.73;;;5.32;;
67839;SDS011;54636;51.684;5.142;2022-10-17T10:50:06;7.65;;;4.93;;
67839;SDS011;54636;51.684;5.142;2022-10-17T10:52:45;6.95;;;5.15;;
67839;SDS011;54636;51.684;5.142;2022-10-17T10:57:55;5.90;;;4.97;;
67839;SDS011;54636;51.684;5.142;2022-10-17T11:00:25;8.25;;;5.53;;
67839;SDS011;54636;51.684;5.142;2022-10-17T11:05:50;9.02;;;5.25;;
67839;SDS011;54636;51.684;5.142;2022-10-17T11:08:19;6.20;;;5.60;;
67839;SDS011;54636;51.684;5.142;2022-10-17T11:13:42;6.00;;;5.47;;
67839;SDS011;54636;51.684;5.142;2022-10-17T11:18:57;6.38;;;5.78;;
67839;SDS011;54636;51.684;5.142;2022-10-17T11:24:05;9.93;;;5.97;;
67839;SDS011;54636;51.684;5.142;2022-10-17T11:26:39;10.13;;;6.00;;
67839;SDS011;54636;51.684;5.142;2022-10-17T11:29:09;6.50;;;5.97;;
67839;SDS011;54636;51.684;5.142;2022-10-17T11:31:38;7.90;;;5.97;;
67839;SDS011;54636;51.684;5.142;2022-10-17T11:34:09;6.10;;;5.60;;
67839;SDS011;54636;51.684;5.142;2022-10-17T11:36:43;6.15;;;5.55;;
67839;SDS011;54636;51.684;5.142;2022-10-17T11:41:58;7.65;;;5.97;;
67839;SDS011;54636;51.684;5.142;2022-10-17T11:44:34;10.27;;;5.47;;
67839;SDS011;54636;51.684;5.142;2022-10-17T11:49:56;6.05;;;5.40;;
67839;SDS011;54636;51.684;5.142;2022-10-17T11:52:47;5.65;;;5.15;;
67839;SDS011;54636;51.684;5.142;2022-10-17T11:55:18;6.05;;;4.90;;
67839;SDS011;54636;51.684;5.142;2022-10-17T11:58:00;5.80;;;5.28;;
67839;SDS011;54636;51.684;5.142;2022-10-17T12:03:22;6.00;;;5.40;;
67839;SDS011;54636;51.684;5.142;2022-10-17T12:11:53;4.30;;;4.00;;
67839;SDS011;54636;51.684;5.142;2022-10-17T12:22:50;6.13;;;4.38;;
67839;SDS011;54636;51.684;5.142;2022-10-17T12:25:20;4.72;;;4.43;;
67839;SDS011;54636;51.684;5.142;2022-10-17T12:27:48;6.22;;;4.80;;
67839;SDS011;54636;51.684;5.142;2022-10-17T12:30:16;6.25;;;4.45;;
67839;SDS011;54636;51.684;5.142;2022-10-17T12:35:20;5.97;;;4.45;;
67839;SDS011;54636;51.684;5.142;2022-10-17T12:43:46;6.93;;;4.40;;
67839;SDS011;54636;51.684;5.142;2022-10-17T12:45:55;5.07;;;4.38;;
67839;SDS011;54636;51.684;5.142;2022-10-17T12:53:40;6.43;;;4.50;;
67839;SDS011;54636;51.684;5.142;2022-10-17T12:56:09;7.03;;;4.82;;
67839;SDS011;54636;51.684;5.142;2022-10-17T12:58:34;7.00;;;4.78;;
67839;SDS011;54636;51.684;5.142;2022-10-17T13:01:00;5.45;;;4.90;;
67839;SDS011;54636;51.684;5.142;2022-10-17T13:03:27;6.53;;;5.13;;
67839;SDS011;54636;51.684;5.142;2022-10-17T13:10:58;8.55;;;6.65;;
67839;SDS011;54636;51.684;5.142;2022-10-17T13:13:36;8.20;;;7.03;;
67839;SDS011;54636;51.684;5.142;2022-10-17T13:16:06;14.38;;;7.50;;
67839;SDS011;54636;51.684;5.142;2022-10-17T13:18:32;8.70;;;7.70;;
67839;SDS011;54636;51.684;5.142;2022-10-17T13:20:59;8.45;;;7.65;;
67839;SDS011;54636;51.684;5.142;2022-10-17T13:23:45;15.93;;;8.73;;
67839;SDS011;54636;51.684;5.142;2022-10-17T13:26:14;13.20;;;8.90;;
67839;SDS011;54636;51.684;5.142;2022-10-17T13:28:46;9.32;;;8.35;;
67839;SDS011;54636;51.684;5.142;2022-10-17T13:31:34;10.73;;;9.07;;
67839;SDS011;54636;51.684;5.142;2022-10-17T13:34:02;10.65;;;9.75;;
67839;SDS011;54636;51.684;5.142;2022-10-17T13:36:30;16.38;;;10.20;;
67839;SDS011;54636;51.684;5.142;2022-10-17T13:38:58;13.98;;;9.98;;
67839;SDS011;54636;51.684;5.142;2022-10-17T13:41:28;10.27;;;9.32;;
67839;SDS011;54636;51.684;5.142;2022-10-17T13:43:58;13.00;;;9.93;;
67839;SDS011;54636;51.684;5.142;2022-10-17T13:46:28;15.02;;;10.60;;
67839;SDS011;54636;51.684;5.142;2022-10-17T13:48:57;11.13;;;9.98;;
67839;SDS011;54636;51.684;5.142;2022-10-17T13:51:32;13.82;;;9.75;;
67839;SDS011;54636;51.684;5.142;2022-10-17T13:53:58;13.02;;;11.70;;
67839;SDS011;54636;51.684;5.142;2022-10-17T13:56:24;12.63;;;11.43;;
67839;SDS011;54636;51.684;5.142;2022-10-17T13:58:52;11.85;;;10.65;;
67839;SDS011;54636;51.684;5.142;2022-10-17T14:01:22;13.88;;;10.25;;
67839;SDS011;54636;51.684;5.142;2022-10-17T14:03:49;11.35;;;10.23;;
67839;SDS011;54636;51.684;5.142;2022-10-17T14:09:00;11.27;;;10.18;;
67839;SDS011;54636;51.684;5.142;2022-10-17T14:14:18;10.77;;;9.88;;
67839;SDS011;54636;51.684;5.142;2022-10-17T14:16:48;10.95;;;9.68;;
67839;SDS011;54636;51.684;5.142;2022-10-17T14:19:33;12.77;;;9.45;;
67839;SDS011;54636;51.684;5.142;2022-10-17T14:24:59;11.07;;;9.15;;
67839;SDS011;54636;51.684;5.142;2022-10-17T14:27:29;10.05;;;8.30;;
67839;SDS011;54636;51.684;5.142;2022-10-17T14:29:59;9.55;;;8.70;;
67839;SDS011;54636;51.684;5.142;2022-10-17T14:32:31;12.43;;;8.40;;
67839;SDS011;54636;51.684;5.142;2022-10-17T14:35:00;9.32;;;8.48;;
67839;SDS011;54636;51.684;5.142;2022-10-17T14:37:33;14.20;;;8.60;;
67839;SDS011;54636;51.684;5.142;2022-10-17T14:40:04;11.43;;;8.10;;
67839;SDS011;54636;51.684;5.142;2022-10-17T14:42:31;8.70;;;7.82;;
67839;SDS011;54636;51.684;5.142;2022-10-17T14:45:05;11.38;;;8.48;;
67839;SDS011;54636;51.684;5.142;2022-10-17T14:47:32;9.48;;;8.43;;
67839;SDS011;54636;51.684;5.142;2022-10-17T14:50:41;9.07;;;8.18;;
67839;SDS011;54636;51.684;5.142;2022-10-17T14:53:05;12.82;;;9.02;;
67839;SDS011;54636;51.684;5.142;2022-10-17T14:55:54;12.25;;;8.73;;
67839;SDS011;54636;51.684;5.142;2022-10-17T14:58:25;12.80;;;9.15;;
67839;SDS011;54636;51.684;5.142;2022-10-17T15:00:52;12.82;;;8.93;;
67839;SDS011;54636;51.684;5.142;2022-10-17T15:03:18;9.25;;;8.40;;
67839;SDS011;54636;51.684;5.142;2022-10-17T15:05:44;14.05;;;9.70;;
67839;SDS011;54636;51.684;5.142;2022-10-17T15:08:14;12.90;;;9.02;;
67839;SDS011;54636;51.684;5.142;2022-10-17T15:10:41;12.82;;;10.77;;
67839;SDS011;54636;51.684;5.142;2022-10-17T15:13:08;10.38;;;9.38;;
67839;SDS011;54636;51.684;5.142;2022-10-17T15:15:35;11.35;;;9.57;;
67839;SDS011;54636;51.684;5.142;2022-10-17T15:18:01;18.05;;;10.00;;
67839;SDS011;54636;51.684;5.142;2022-10-17T15:20:28;12.70;;;9.35;;
67839;SDS011;54636;51.684;5.142;2022-10-17T15:22:55;11.05;;;10.07;;
67839;SDS011;54636;51.684;5.142;2022-10-17T15:25:22;11.40;;;9.32;;
67839;SDS011;54636;51.684;5.142;2022-10-17T15:27:48;16.63;;;9.30;;
67839;SDS011;54636;51.684;5.142;2022-10-17T15:30:15;13.52;;;9.18;;
67839;SDS011;54636;51.684;5.142;2022-10-17T15:32:46;17.92;;;10.23;;
67839;SDS011;54636;51.684;5.142;2022-10-17T15:35:12;22.42;;;11.18;;
67839;SDS011;54636;51.684;5.142;2022-10-17T15:37:37;10.80;;;9.75;;
67839;SDS011;54636;51.684;5.142;2022-10-17T15:40:03;11.32;;;9.95;;
67839;SDS011;54636;51.684;5.142;2022-10-17T15:42:30;11.13;;;9.82;;
67839;SDS011;54636;51.684;5.142;2022-10-17T15:44:55;10.73;;;9.60;;
67839;SDS011;54636;51.684;5.142;2022-10-17T15:47:28;13.95;;;10.20;;
67839;SDS011;54636;51.684;5.142;2022-10-17T15:49:57;13.00;;;10.48;;
67839;SDS011;54636;51.684;5.142;2022-10-17T15:52:23;17.63;;;10.50;;
67839;SDS011;54636;51.684;5.142;2022-10-17T15:54:49;10.65;;;9.57;;
67839;SDS011;54636;51.684;5.142;2022-10-17T15:57:18;17.00;;;10.18;;
67839;SDS011;54636;51.684;5.142;2022-10-17T15:59:48;11.45;;;10.25;;
67839;SDS011;54636;51.684;5.142;2022-10-17T16:02:15;11.75;;;9.88;;
67839;SDS011;54636;51.684;5.142;2022-10-17T16:04:42;14.45;;;10.07;;
67839;SDS011;54636;51.684;5.142;2022-10-17T16:07:08;13.75;;;10.27;;
67839;SDS011;54636;51.684;5.142;2022-10-17T16:09:34;11.05;;;9.80;;
67839;SDS011;54636;51.684;5.142;2022-10-17T16:12:02;12.27;;;10.65;;
67839;SDS011;54636;51.684;5.142;2022-10-17T16:14:29;15.90;;;10.88;;
67839;SDS011;54636;51.684;5.142;2022-10-17T16:16:56;16.73;;;10.90;;
67839;SDS011;54636;51.684;5.142;2022-10-17T16:19:24;18.98;;;10.70;;
67839;SDS011;54636;51.684;5.142;2022-10-17T16:21:54;15.60;;;11.32;;
67839;SDS011;54636;51.684;5.142;2022-10-17T16:24:20;13.25;;;10.48;;
67839;SDS011;54636;51.684;5.142;2022-10-17T16:26:45;12.27;;;10.38;;
67839;SDS011;54636;51.684;5.142;2022-10-17T16:29:11;11.50;;;10.30;;
67839;SDS011;54636;51.684;5.142;2022-10-17T16:31:38;12.90;;;11.40;;
67839;SDS011;54636;51.684;5.142;2022-10-17T16:34:06;17.35;;;11.32;;
67839;SDS011;54636;51.684;5.142;2022-10-17T16:36:33;14.15;;;11.30;;
67839;SDS011;54636;51.684;5.142;2022-10-17T16:38:59;13.82;;;11.98;;
67839;SDS011;54636;51.684;5.142;2022-10-17T16:41:26;14.70;;;11.80;;
67839;SDS011;54636;51.684;5.142;2022-10-17T16:43:53;18.60;;;12.90;;
67839;SDS011;54636;51.684;5.142;2022-10-17T16:46:20;19.58;;;12.02;;
67839;SDS011;54636;51.684;5.142;2022-10-17T16:48:46;15.90;;;12.20;;
67839;SDS011;54636;51.684;5.142;2022-10-17T16:51:13;13.98;;;12.23;;